KC2DUX Weather Reports


Display with metric or nautical units.
time (UTC)temp
F
wind
direction
speed
MPH
gust
MPH
rain 1hr
in
rain 24hr
in
rain mn
in
humidity
%
barometer
mb
20220516194038 79 218 8.0 17.0 0.00 0.00 0.00 69 1002.4
20220516193536 78 221 10.0 19.0 0.00 0.00 0.00 69 1002.6
20220516193037 78 216 10.0 17.0 0.00 0.00 0.00 69 1002.7
20220516192535 78 200 9.0 16.0 0.00 0.00 0.00 69 1002.8
20220516192039 78 215 9.0 17.0 0.00 0.00 0.00 70 1002.8
20220516191534 78 205 11.0 17.0 0.00 0.00 0.00 69 1002.8
20220516191040 78 204 9.0 15.0 0.00 0.00 0.00 71 1002.8
20220516190534 78 190 8.0 15.0 0.00 0.00 0.00 71 1002.9
20220516190033 78 231 9.0 15.0 0.00 0.00 0.00 71 1003.0
20220516185531 77 215 8.0 16.0 0.00 0.00 0.00 72 1003.1
20220516185031 76 215 10.0 15.0 0.00 0.00 0.00 72 1003.2
20220516184536 76 209 9.0 15.0 0.00 0.00 0.00 73 1003.4
20220516184028 76 227 9.0 15.0 0.00 0.00 0.00 73 1003.5
20220516183527 76 213 8.0 15.0 0.00 0.00 0.00 71 1003.6
20220516183027 76 224 10.0 17.0 0.00 0.00 0.00 71 1003.6
20220516182531 76 202 7.0 15.0 0.00 0.00 0.00 72 1003.7
20220516182026 76 249 8.0 17.0 0.00 0.00 0.00 71 1003.8
20220516181524 77 215 8.0 19.0 0.00 0.00 0.00 71 1003.8
20220516181028 77 207 9.0 18.0 0.00 0.00 0.00 70 1004.0
20220516180522 76 216 3.0 8.0 0.00 0.00 0.00 75 1004.0
20220516180029 75 214 4.0 8.0 0.00 0.00 0.00 74 1004.1
20220516175525 75 201 3.0 8.0 0.00 0.00 0.00 75 1004.0
20220516175021 74 196 3.0 8.0 0.00 0.00 0.00 75 1004.1
20220516174538 74 173 3.0 10.0 0.00 0.00 0.00 75 1004.1
20220516174020 75 213 3.0 10.0 0.00 0.00 0.00 75 1004.3
20220516173519 75 216 6.0 10.0 0.00 0.00 0.00 74 1004.3
20220516173027 75 225 3.0 8.0 0.00 0.00 0.00 75 1004.4
20220516172519 75 205 4.0 7.0 0.00 0.00 0.00 74 1004.3
20220516172018 75 197 2.0 5.0 0.00 0.00 0.00 75 1004.3
20220516171518 75 182 2.0 5.0 0.00 0.00 0.00 75 1004.4
20220516171016 75 126 3.0 7.0 0.00 0.00 0.00 73 1004.6
20220516170517 76 104 1.0 7.0 0.00 0.00 0.00 74 1004.6
20220516170015 76 184 2.0 6.0 0.00 0.00 0.00 74 1004.7
20220516165515 75 185 3.0 6.0 0.00 0.00 0.00 74 1004.7
20220516165014 75 213 3.0 7.0 0.00 0.00 0.00 75 1004.6
20220516164516 74 211 4.0 7.0 0.00 0.00 0.00 75 1004.7
20220516164011 74 212 4.0 7.0 0.00 0.00 0.00 76 1004.9
20220516163516 74 219 4.0 7.0 0.00 0.00 0.00 77 1005.0
20220516163015 73 215 4.0 7.0 0.00 0.00 0.00 78 1005.1
20220516162506 72 208 2.0 6.0 0.00 0.00 0.00 79 1005.2
20220516162007 71 184 4.0 6.0 0.00 0.00 0.00 79 1005.4
20220516161506 70 213 3.0 6.0 0.00 0.00 0.00 80 1005.6
20220516161003 70 189 2.0 3.0 0.00 0.00 0.00 80 1005.7
20220516160503 70 188 1.0 4.0 0.00 0.00 0.00 80 1005.7
20220516160004 70 158 1.0 3.0 0.00 0.00 0.00 80 1005.8
20220516155502 69 157 1.0 5.0 0.00 0.00 0.00 81 1005.9
20220516155100 69 155 1.0 5.0 0.00 0.00 0.00 80 1005.9
20220516154624 69 135 2.0 4.0 0.00 0.00 0.00 80 1005.9
20220516154101 69 120 1.0 4.0 0.00 0.00 0.00 80 1006.0
20220516153558 70 140 2.0 5.0 0.00 0.00 0.00 79 1006.1
20220516153058 70 135 1.0 4.0 0.00 0.00 0.00 79 1006.1
20220516152557 70 134 0.0 4.0 0.00 0.00 0.00 79 1006.2
20220516152100 70 159 1.0 5.0 0.00 0.00 0.00 79 1006.2
20220516151556 71 188 1.0 5.0 0.00 0.00 0.00 78 1006.2
20220516151056 71 195 1.0 5.0 0.00 0.00 0.00 78 1006.2
20220516150555 72 197 1.0 4.0 0.00 0.00 0.00 78 1006.3
20220516150055 72 196 2.0 5.0 0.00 0.00 0.00 77 1006.3
20220516145559 72 188 1.0 8.0 0.00 0.00 0.00 77 1006.3
20220516145054 73 178 3.0 8.0 0.00 0.00 0.00 77 1006.4
20220516144604 73 145 2.0 8.0 0.00 0.00 0.00 78 1006.3
20220516144055 73 211 4.0 9.0 0.00 0.00 0.00 77 1006.4
20220516143552 73 169 4.0 10.0 0.00 0.00 0.00 77 1006.4
20220516143051 72 212 5.0 10.0 0.00 0.00 0.00 78 1006.5
20220516142552 72 215 4.0 8.0 0.00 0.00 0.00 79 1006.4
20220516142049 72 213 3.0 8.0 0.00 0.00 0.00 79 1006.3
20220516141548 71 213 5.0 8.0 0.00 0.00 0.00 79 1006.3
20220516141047 71 211 4.0 7.0 0.00 0.00 0.00 79 1006.5
20220516140545 71 213 3.0 10.0 0.00 0.00 0.00 79 1006.5
20220516140046 71 207 4.0 9.0 0.00 0.00 0.00 79 1006.5
20220516135551 71 195 3.0 9.0 0.00 0.00 0.00 80 1006.5
20220516135045 71 216 3.0 7.0 0.00 0.00 0.00 80 1006.5
20220516134544 71 200 3.0 7.0 0.00 0.00 0.00 79 1006.4
20220516134044 71 198 2.0 7.0 0.00 0.00 0.00 81 1006.5
20220516133545 71 207 2.0 8.0 0.00 0.00 0.00 81 1006.6
20220516133043 70 182 3.0 7.0 0.00 0.00 0.00 81 1006.6
20220516132546 70 205 2.0 7.0 0.00 0.00 0.00 81 1006.7
20220516132042 70 190 1.0 4.0 0.00 0.00 0.00 81 1006.8
20220516131540 71 190 1.0 7.0 0.00 0.00 0.00 80 1006.8
20220516131040 71 207 2.0 7.0 0.00 0.00 0.00 81 1006.9
20220516130544 71 200 2.0 7.0 0.00 0.00 0.00 80 1006.9
20220516130038 71 223 4.0 8.0 0.00 0.00 0.00 80 1006.9
20220516125541 71 219 3.0 8.0 0.00 0.00 0.00 81 1007.0
20220516125036 70 212 3.0 6.0 0.00 0.00 0.00 81 1007.0
20220516124542 70 138 1.0 5.0 0.00 0.00 0.00 83 1007.0
20220516124034 69 188 2.0 4.0 0.00 0.00 0.00 83 1006.9
20220516123533 69 185 1.0 3.0 0.00 0.00 0.00 84 1006.9
20220516123031 68 182 0.0 3.0 0.00 0.00 0.00 86 1006.8
20220516122529 68 182 1.0 4.0 0.00 0.00 0.00 86 1006.9
20220516122029 68 186 1.0 4.0 0.00 0.00 0.00 87 1007.0
20220516121532 67 186 0.0 3.0 0.00 0.00 0.00 88 1007.0
20220516121027 67 186 0.0 4.0 0.00 0.00 0.00 88 1007.0
20220516120527 67 188 1.0 5.0 0.00 0.00 0.00 87 1007.0
20220516120026 67 186 2.0 5.0 0.00 0.00 0.00 88 1007.0
20220516115531 67 201 1.0 6.0 0.00 0.00 0.00 89 1006.9
20220516115025 67 204 2.0 6.0 0.00 0.00 0.00 89 1006.9
20220516114525 67 188 1.0 4.0 0.00 0.00 0.00 90 1006.9
20220516114027 67 190 1.0 4.0 0.00 0.00 0.00 91 1007.0
20220516113522 67 190 1.0 4.0 0.00 0.00 0.00 92 1007.0
20220516113022 66 188 0.0 3.0 0.00 0.00 0.00 93 1007.0
20220516112521 66 188 1.0 3.0 0.00 0.00 0.00 94 1007.1
20220516112027 66 188 1.0 3.0 0.00 0.00 0.00 94 1007.1
20220516111518 65 188 0.0 3.0 0.00 0.00 0.00 95 1007.1
20220516111017 65 189 0.0 2.0 0.00 0.00 0.00 95 1007.1
20220516110516 64 189 0.0 1.0 0.00 0.00 0.00 95 1007.1
20220516110015 63 189 0.0 1.0 0.00 0.00 0.00 95 1007.1
20220516105520 63 189 0.0 2.0 0.00 0.00 0.00 95 1007.0
20220516105014 62 189 0.0 2.0 0.00 0.00 0.00 95 1007.1
20220516104514 62 189 0.0 0.0 0.00 0.00 0.00 94 1007.2
20220516104014 62 189 0.0 0.0 0.00 0.00 0.00 94 1007.2
20220516103514 62 189 0.0 0.0 0.00 0.00 0.00 94 1007.1
20220516103013 62 189 0.0 0.0 0.00 0.00 0.00 94 1007.3
20220516102513 62 189 0.0 0.0 0.00 0.00 0.00 94 1007.4
20220516102017 62 189 0.0 0.0 0.00 0.00 0.00 94 1007.3
20220516101512 62 189 0.0 0.0 0.00 0.00 0.00 94 1007.3
20220516101015 62 189 0.0 1.0 0.00 0.00 0.00 94 1007.3
20220516100512 62 189 0.0 1.0 0.00 0.00 0.00 94 1007.3
20220516100012 62 189 0.0 0.0 0.00 0.00 0.00 94 1007.3
20220516095514 62 189 0.0 0.0 0.00 0.00 0.00 94 1007.3
20220516095012 62 189 0.0 0.0 0.00 0.00 0.00 93 1007.2
20220516094513 62 189 0.0 0.0 0.00 0.00 0.00 93 1007.2
20220516094012 62 189 0.0 1.0 0.00 0.00 0.00 93 1007.2
20220516093511 62 189 0.0 1.0 0.00 0.00 0.00 93 1007.2
20220516093017 62 189 0.0 1.0 0.00 0.00 0.00 93 1007.2
20220516092511 62 189 0.0 1.0 0.00 0.00 0.00 93 1007.2
20220516092011 63 189 0.0 2.0 0.00 0.00 0.00 93 1007.2
20220516091508 63 189 0.0 2.0 0.00 0.00 0.00 93 1007.4
20220516091012 63 189 0.0 2.0 0.00 0.00 0.00 93 1007.5
20220516090507 63 189 0.0 2.0 0.00 0.00 0.00 94 1007.5
20220516090010 63 189 0.0 3.0 0.00 0.00 0.00 94 1007.6
20220516085506 63 189 0.0 4.0 0.00 0.00 0.00 94 1007.5
20220516085009 63 189 2.0 4.0 0.00 0.00 0.00 94 1007.6
20220516084514 63 182 0.0 3.0 0.00 0.00 0.00 94 1007.7
20220516084007 63 180 0.0 3.0 0.00 0.00 0.00 94 1007.6
20220516083506 63 180 1.0 4.0 0.00 0.00 0.00 94 1007.6
20220516083005 63 180 1.0 4.0 0.00 0.00 0.00 94 1007.6
20220516082509 63 180 0.0 2.0 0.00 0.00 0.00 94 1007.6
20220516082004 63 180 0.0 3.0 0.00 0.00 0.00 94 1007.6
20220516081505 62 180 0.0 3.0 0.00 0.00 0.00 94 1007.7
20220516081003 62 176 1.0 3.0 0.00 0.00 0.00 94 1007.7
20220516080508 62 176 0.0 1.0 0.00 0.00 0.00 94 1007.8
20220516080002 62 176 0.0 2.0 0.00 0.00 0.00 94 1007.9
20220516075506 62 176 0.0 0.0 0.00 0.00 0.00 94 1008.0
20220516075002 62 176 0.0 0.0 0.00 0.00 0.00 94 1008.1
20220516074501 62 176 0.0 2.0 0.00 0.00 0.00 94 1008.1
20220516074001 62 176 0.0 2.0 0.00 0.00 0.00 94 1008.1
20220516073505 62 176 0.0 2.0 0.00 0.00 0.00 94 1008.2
20220516073000 63 176 0.0 0.0 0.00 0.00 0.00 93 1008.0
20220516072503 63 176 0.0 1.0 0.00 0.00 0.00 94 1008.1
20220516072100 63 176 0.0 2.0 0.00 0.00 0.00 94 1008.1
20220516071610 63 176 0.0 1.0 0.00 0.00 0.00 94 1008.2
20220516071059 63 176 0.0 0.0 0.00 0.00 0.00 94 1008.2
20220516070600 63 176 0.0 0.0 0.00 0.00 0.00 94 1008.3
20220516070101 63 176 0.0 0.0 0.00 0.00 0.00 94 1008.2
20220516065558 63 176 0.0 1.0 0.00 0.00 0.00 94 1008.1
20220516065058 63 176 0.0 2.0 0.00 0.00 0.00 94 1008.1
20220516064558 63 176 0.0 2.0 0.00 0.00 0.00 94 1008.1
20220516064057 63 176 0.0 2.0 0.00 0.00 0.00 94 1008.2
20220516063557 62 176 0.0 0.0 0.00 0.00 0.00 94 1008.2
20220516063056 62 176 0.0 0.0 0.00 0.00 0.00 94 1008.2
20220516062556 63 176 0.0 0.0 0.00 0.00 0.00 94 1008.3
20220516062056 62 176 0.0 0.0 0.00 0.00 0.00 94 1008.3
20220516061556 63 176 0.0 1.0 0.00 0.00 0.00 94 1008.3
20220516061055 63 176 0.0 2.0 0.00 0.00 0.00 94 1008.3
20220516060555 63 176 0.0 2.0 0.00 0.00 0.00 94 1008.4
20220516060111 63 176 0.0 1.0 0.00 0.00 0.00 94 1008.5
20220516055552 63 176 0.0 0.0 0.00 0.00 0.00 94 1008.6
20220516055053 63 176 0.0 0.0 0.00 0.00 0.00 94 1008.6
20220516054555 62 176 0.0 1.0 0.00 0.00 0.00 94 1008.6
20220516054051 62 176 0.0 2.0 0.00 0.00 0.00 94 1008.7
20220516053552 62 176 0.0 2.0 0.00 0.00 0.00 94 1008.8
20220516053049 62 176 0.0 1.0 0.00 0.00 0.00 94 1008.8
20220516052548 62 176 0.0 2.0 0.00 0.00 0.00 94 1008.9
20220516052047 62 176 0.0 2.0 0.00 0.00 0.00 94 1009.1
20220516051546 61 176 0.0 0.0 0.00 0.00 0.00 94 1009.2
20220516051046 61 176 0.0 0.0 0.00 0.00 0.00 94 1009.3
20220516050544 61 176 0.0 0.0 0.00 0.00 0.00 94 1009.4
20220516050043 60 176 0.0 0.0 0.00 0.00 0.00 94 1009.5
20220516045542 60 176 0.0 2.0 0.00 0.00 0.00 94 1009.5
20220516045042 60 176 0.0 2.0 0.00 0.00 0.00 93 1009.7
20220516044543 60 176 0.0 0.0 0.00 0.00 0.00 93 1009.7
20220516044041 60 176 0.0 0.0 0.00 0.00 0.00 93 1009.7
20220516043540 60 176 0.0 0.0 0.00 0.00 0.00 93 1009.7
20220516043044 60 176 0.0 0.0 0.00 0.00 0.00 93 1009.7
20220516042539 59 176 0.0 0.0 0.00 0.00 0.00 93 1009.8
20220516042035 59 176 0.0 0.0 0.00 0.00 0.00 93 1009.9
20220516041535 59 176 0.0 0.0 0.00 0.00 0.00 93 1009.9
20220516041035 59 176 0.0 0.0 0.00 0.00 0.00 93 1009.9
20220516040533 59 176 0.0 0.0 0.00 0.00 0.00 93 1010.0
20220516040032 59 176 0.0 0.0 0.00 0.00 0.00 93 1010.0
20220516035533 59 176 0.0 0.0 0.00 0.00 0.00 93 1010.0
20220516035035 59 176 0.0 0.0 0.00 0.00 0.00 93 1010.1
20220516034538 59 176 0.0 0.0 0.00 0.00 0.00 93 1010.1
20220516034031 60 176 0.0 0.0 0.00 0.00 0.00 92 1010.2
20220516033532 60 176 0.0 0.0 0.00 0.00 0.00 92 1010.3
20220516033030 60 176 0.0 0.0 0.00 0.00 0.00 92 1010.3
20220516032530 60 176 0.0 0.0 0.00 0.00 0.00 92 1010.4
20220516032031 60 176 0.0 0.0 0.00 0.00 0.00 92 1010.3
20220516031539 60 176 0.0 1.0 0.00 0.00 0.00 92 1010.4
20220516031029 60 176 0.0 2.0 0.00 0.00 0.00 92 1010.3
20220516030531 60 176 0.0 2.0 0.00 0.00 0.00 92 1010.3
20220516030034 60 176 0.0 2.0 0.00 0.00 0.00 92 1010.4
20220516025532 60 176 0.0 3.0 0.00 0.00 0.00 92 1010.5
20220516025032 60 176 1.0 3.0 0.00 0.00 0.00 92 1010.5
20220516024528 60 176 0.0 3.0 0.00 0.00 0.00 92 1010.5
20220516024028 60 176 0.0 2.0 0.00 0.00 0.00 92 1010.5
20220516023536 60 176 0.0 2.0 0.00 0.00 0.00 92 1010.5
20220516023028 60 176 0.0 3.0 0.00 0.00 0.00 92 1010.7
20220516022530 60 176 0.0 3.0 0.00 0.00 0.00 91 1010.6
20220516022030 60 176 1.0 4.0 0.00 0.00 0.00 91 1010.6
20220516021538 60 176 1.0 4.0 0.00 0.00 0.00 91 1010.5
20220516021026 60 196 1.0 3.0 0.00 0.00 0.00 91 1010.5
20220516020527 60 197 0.0 4.0 0.00 0.00 0.00 91 1010.4
20220516020026 60 198 1.0 4.0 0.00 0.00 0.00 91 1010.4
20220516015529 60 194 1.0 2.0 0.00 0.00 0.00 91 1010.4
20220516015030 61 194 0.0 3.0 0.00 0.00 0.00 91 1010.4
20220516014526 61 194 1.0 3.0 0.00 0.00 0.00 91 1010.3
20220516014025 61 195 1.0 3.0 0.00 0.00 0.00 90 1010.3
20220516013526 61 196 0.0 4.0 0.00 0.00 0.00 90 1010.3
20220516013025 61 196 1.0 6.0 0.00 0.00 0.00 90 1010.2
20220516012525 61 193 1.0 6.0 0.00 0.00 0.00 90 1010.0
20220516012027 62 192 2.0 5.0 0.00 0.00 0.00 90 1009.9
20220516011525 62 188 1.0 6.0 0.00 0.00 0.00 90 1009.9
20220516011025 62 188 3.0 6.0 0.00 0.00 0.00 90 1010.0
20220516010525 62 192 2.0 4.0 0.00 0.00 0.00 90 1009.8
20220516010033 62 175 2.0 4.0 0.00 0.00 0.00 90 1009.8
20220516005526 62 203 1.0 3.0 0.00 0.00 0.00 89 1009.8
20220516005024 62 203 0.0 2.0 0.00 0.00 0.00 89 1009.8
20220516004525 62 203 0.0 2.0 0.00 0.00 0.00 89 1009.8
20220516004024 63 203 0.0 3.0 0.00 0.00 0.00 89 1009.7
20220516003523 63 205 0.0 7.0 0.00 0.00 0.00 89 1009.8
20220516003024 63 205 1.0 7.0 0.00 0.00 0.00 89 1009.8
20220516002523 63 197 1.0 2.0 0.00 0.00 0.00 88 1009.7
20220516002024 63 197 0.0 2.0 0.00 0.00 0.00 87 1009.6
20220516001523 63 197 0.0 3.0 0.00 0.00 0.00 87 1009.8
20220516001023 64 197 1.0 3.0 0.00 0.00 0.00 86 1009.8
20220516000523 64 198 1.0 3.0 0.00 0.00 0.00 86 1009.8
20220516000025 64 208 0.0 3.0 0.00 0.00 0.00 86 1009.9
20220515235522 65 208 0.0 3.0 0.00 0.00 0.00 85 1009.9
20220515235022 65 208 0.0 2.0 0.00 0.00 0.00 85 1010.2
20220515234522 65 208 0.0 4.0 0.00 0.00 0.00 85 1010.1
20220515234022 65 209 0.0 4.0 0.00 0.00 0.00 85 1010.1
20220515233521 66 209 0.0 5.0 0.00 0.00 0.00 84 1010.0
20220515233021 66 208 2.0 5.0 0.00 0.00 0.00 84 1010.0
20220515232524 66 208 2.0 6.0 0.00 0.00 0.00 83 1009.9
20220515232020 67 180 2.0 7.0 0.00 0.00 0.00 81 1009.8
20220515231530 68 200 4.0 7.0 0.00 0.00 0.00 79 1009.7
20220515231020 69 191 3.0 8.0 0.00 0.00 0.00 79 1009.6
20220515230519 69 204 2.0 7.0 0.00 0.00 0.00 78 1009.5
20220515230032 70 182 3.0 7.0 0.00 0.00 0.00 78 1009.5
20220515225519 70 178 4.0 9.0 0.00 0.00 0.00 78 1009.4
20220515225019 71 209 4.0 11.0 0.00 0.00 0.00 77 1009.5
20220515224520 71 183 5.0 12.0 0.00 0.00 0.00 76 1009.4
20220515224018 72 215 3.0 10.0 0.00 0.00 0.00 74 1009.6
20220515223522 73 193 4.0 10.0 0.00 0.00 0.00 75 1009.6
20220515223020 73 187 3.0 8.0 0.00 0.00 0.00 74 1009.6
20220515222518 74 211 4.0 8.0 0.00 0.00 0.00 73 1009.5
20220515222023 74 217 4.0 8.0 0.00 0.00 0.00 73 1009.6
20220515221518 75 202 3.0 7.0 0.00 0.00 0.00 72 1009.5
20220515221018 75 183 2.0 7.0 0.00 0.00 0.00 72 1009.6
20220515220517 75 202 2.0 8.0 0.00 0.00 0.00 72 1009.6
20220515220016 76 204 3.0 8.0 0.00 0.00 0.00 71 1009.6
20220515215516 76 232 2.0 10.0 0.00 0.00 0.00 70 1009.6
20220515215017 75 211 2.0 10.0 0.00 0.00 0.00 71 1009.6
20220515214515 76 250 4.0 8.0 0.00 0.00 0.00 70 1009.5
20220515214017 76 210 3.0 8.0 0.00 0.00 0.00 70 1009.5
20220515213515 76 210 3.0 7.0 0.00 0.00 0.00 70 1009.5
20220515213016 76 236 4.0 8.0 0.00 0.00 0.00 70 1009.6
20220515212519 76 202 4.0 8.0 0.00 0.00 0.00 69 1009.6
20220515212018 76 220 4.0 8.0 0.00 0.00 0.00 69 1009.5
20220515211514 75 205 4.0 8.0 0.00 0.00 0.00 70 1009.6
20220515211015 76 245 4.0 8.0 0.00 0.00 0.00 70 1009.6
20220515210513 76 223 4.0 9.0 0.00 0.00 0.00 70 1009.5
20220515210022 76 242 4.0 9.0 0.00 0.00 0.00 70 1009.5
20220515205516 76 214 3.0 9.0 0.00 0.00 0.00 70 1009.4
20220515205012 76 213 4.0 11.0 0.00 0.00 0.00 70 1009.4
20220515204511 76 259 4.0 11.0 0.00 0.00 0.00 71 1009.4
20220515204015 76 205 3.0 8.0 0.00 0.00 0.00 71 1009.6
20220515203509 76 221 4.0 10.0 0.00 0.00 0.00 71 1009.7
20220515203007 75 253 2.0 10.0 0.00 0.00 0.00 71 1009.8
20220515202506 75 275 4.0 9.0 0.00 0.00 0.00 72 1010.0
20220515202006 75 194 5.0 11.0 0.00 0.00 0.00 72 1010.1
20220515201505 75 286 5.0 11.0 0.00 0.00 0.00 72 1010.2
20220515201005 75 200 3.0 13.0 0.00 0.00 0.00 71 1010.2
20220515200510 75 196 5.0 13.0 0.00 0.00 0.00 70 1010.4
20220515200004 75 248 4.0 9.0 0.00 0.00 0.00 72 1010.4
20220515195510 74 201 5.0 10.0 0.00 0.01 0.00 72 1010.5
20220515195003 75 214 6.0 10.0 0.00 0.01 0.00 71 1010.5
20220515194505 75 241 3.0 10.0 0.00 0.01 0.00 73 1010.6